sensor_id;sensor_type;location;lat;lon;timestamp;P1;durP1;ratioP1;P2;durP2;ratioP2
3022;SDS011;1521;53.584;9.938;2023-05-10T00:01:48;7.70;;;4.67;;
3022;SDS011;1521;53.584;9.938;2023-05-10T00:04:14;10.87;;;5.07;;
3022;SDS011;1521;53.584;9.938;2023-05-10T00:06:39;7.30;;;4.80;;
3022;SDS011;1521;53.584;9.938;2023-05-10T00:09:05;5.80;;;4.73;;
3022;SDS011;1521;53.584;9.938;2023-05-10T00:11:30;7.87;;;5.77;;
3022;SDS011;1521;53.584;9.938;2023-05-10T00:13:56;8.20;;;4.97;;
3022;SDS011;1521;53.584;9.938;2023-05-10T00:16:21;5.33;;;4.83;;
3022;SDS011;1521;53.584;9.938;2023-05-10T00:18:47;5.57;;;4.93;;
3022;SDS011;1521;53.584;9.938;2023-05-10T00:21:13;5.80;;;5.20;;
3022;SDS011;1521;53.584;9.938;2023-05-10T00:23:38;6.93;;;5.50;;
3022;SDS011;1521;53.584;9.938;2023-05-10T00:26:04;6.40;;;5.37;;
3022;SDS011;1521;53.584;9.938;2023-05-10T00:28:29;9.90;;;4.70;;
3022;SDS011;1521;53.584;9.938;2023-05-10T00:30:55;9.50;;;5.30;;
3022;SDS011;1521;53.584;9.938;2023-05-10T00:33:21;6.23;;;5.50;;
3022;SDS011;1521;53.584;9.938;2023-05-10T00:35:46;7.30;;;5.17;;
3022;SDS011;1521;53.584;9.938;2023-05-10T00:38:12;7.20;;;5.20;;
3022;SDS011;1521;53.584;9.938;2023-05-10T00:40:38;7.00;;;5.40;;
3022;SDS011;1521;53.584;9.938;2023-05-10T00:43:03;7.17;;;5.37;;
3022;SDS011;1521;53.584;9.938;2023-05-10T00:45:30;9.00;;;5.03;;
3022;SDS011;1521;53.584;9.938;2023-05-10T00:47:57;10.20;;;5.10;;
3022;SDS011;1521;53.584;9.938;2023-05-10T00:50:24;11.27;;;5.60;;
3022;SDS011;1521;53.584;9.938;2023-05-10T00:52:51;7.47;;;5.10;;
3022;SDS011;1521;53.584;9.938;2023-05-10T00:55:16;7.70;;;5.90;;
3022;SDS011;1521;53.584;9.938;2023-05-10T00:57:43;6.27;;;5.30;;
3022;SDS011;1521;53.584;9.938;2023-05-10T01:00:09;5.87;;;5.13;;
3022;SDS011;1521;53.584;9.938;2023-05-10T01:02:36;6.17;;;5.07;;
3022;SDS011;1521;53.584;9.938;2023-05-10T01:05:02;8.97;;;5.33;;
3022;SDS011;1521;53.584;9.938;2023-05-10T01:07:28;8.70;;;5.37;;
3022;SDS011;1521;53.584;9.938;2023-05-10T01:09:54;7.90;;;5.73;;
3022;SDS011;1521;53.584;9.938;2023-05-10T01:12:20;8.77;;;5.70;;
3022;SDS011;1521;53.584;9.938;2023-05-10T01:14:46;9.40;;;5.70;;
3022;SDS011;1521;53.584;9.938;2023-05-10T01:17:12;8.80;;;5.60;;
3022;SDS011;1521;53.584;9.938;2023-05-10T01:19:39;9.53;;;5.73;;
3022;SDS011;1521;53.584;9.938;2023-05-10T01:22:13;7.77;;;5.93;;
3022;SDS011;1521;53.584;9.938;2023-05-10T01:33:33;8.00;;;5.60;;
3022;SDS011;1521;53.584;9.938;2023-05-10T01:41:36;7.67;;;5.50;;
3022;SDS011;1521;53.584;9.938;2023-05-10T01:44:39;9.67;;;5.40;;
3022;SDS011;1521;53.584;9.938;2023-05-10T01:49:54;9.30;;;5.60;;
3022;SDS011;1521;53.584;9.938;2023-05-10T01:52:29;10.20;;;6.30;;
3022;SDS011;1521;53.584;9.938;2023-05-10T01:55:05;6.60;;;5.90;;
3022;SDS011;1521;53.584;9.938;2023-05-10T01:57:33;11.90;;;5.83;;
3022;SDS011;1521;53.584;9.938;2023-05-10T02:00:01;6.97;;;5.90;;
3022;SDS011;1521;53.584;9.938;2023-05-10T02:02:29;15.93;;;6.30;;
3022;SDS011;1521;53.584;9.938;2023-05-10T02:04:58;9.50;;;6.10;;
3022;SDS011;1521;53.584;9.938;2023-05-10T02:07:24;13.33;;;5.83;;
3022;SDS011;1521;53.584;9.938;2023-05-10T02:09:53;15.83;;;6.13;;
3022;SDS011;1521;53.584;9.938;2023-05-10T02:12:20;8.37;;;6.30;;
3022;SDS011;1521;53.584;9.938;2023-05-10T02:14:48;7.57;;;5.80;;
3022;SDS011;1521;53.584;9.938;2023-05-10T02:17:17;12.47;;;6.23;;
3022;SDS011;1521;53.584;9.938;2023-05-10T02:19:44;10.50;;;6.10;;
3022;SDS011;1521;53.584;9.938;2023-05-10T02:22:12;9.20;;;6.10;;
3022;SDS011;1521;53.584;9.938;2023-05-10T02:24:40;8.10;;;5.87;;
3022;SDS011;1521;53.584;9.938;2023-05-10T02:27:06;9.37;;;6.13;;
3022;SDS011;1521;53.584;9.938;2023-05-10T02:29:34;7.30;;;5.90;;
3022;SDS011;1521;53.584;9.938;2023-05-10T02:32:01;7.73;;;5.70;;
3022;SDS011;1521;53.584;9.938;2023-05-10T02:34:28;9.10;;;6.13;;
3022;SDS011;1521;53.584;9.938;2023-05-10T02:36:55;8.17;;;5.40;;
3022;SDS011;1521;53.584;9.938;2023-05-10T02:39:21;9.40;;;6.07;;
3022;SDS011;1521;53.584;9.938;2023-05-10T02:41:48;11.77;;;5.63;;
3022;SDS011;1521;53.584;9.938;2023-05-10T02:44:15;11.20;;;6.60;;
3022;SDS011;1521;53.584;9.938;2023-05-10T02:46:44;9.40;;;6.47;;
3022;SDS011;1521;53.584;9.938;2023-05-10T02:49:10;8.30;;;5.90;;
3022;SDS011;1521;53.584;9.938;2023-05-10T02:51:36;6.70;;;5.93;;
3022;SDS011;1521;53.584;9.938;2023-05-10T02:54:12;9.03;;;5.57;;
3022;SDS011;1521;53.584;9.938;2023-05-10T02:56:47;12.67;;;6.13;;
3022;SDS011;1521;53.584;9.938;2023-05-10T02:59:34;9.90;;;6.13;;
3022;SDS011;1521;53.584;9.938;2023-05-10T03:02:00;8.03;;;5.30;;
3022;SDS011;1521;53.584;9.938;2023-05-10T03:04:26;7.07;;;5.97;;
3022;SDS011;1521;53.584;9.938;2023-05-10T03:06:52;9.00;;;6.03;;
3022;SDS011;1521;53.584;9.938;2023-05-10T03:09:18;7.00;;;5.60;;
3022;SDS011;1521;53.584;9.938;2023-05-10T03:12:00;8.47;;;5.80;;
3022;SDS011;1521;53.584;9.938;2023-05-10T03:17:23;8.87;;;6.70;;
3022;SDS011;1521;53.584;9.938;2023-05-10T03:19:56;8.63;;;5.43;;
3022;SDS011;1521;53.584;9.938;2023-05-10T03:22:28;8.50;;;5.77;;
3022;SDS011;1521;53.584;9.938;2023-05-10T03:24:57;8.10;;;5.60;;
3022;SDS011;1521;53.584;9.938;2023-05-10T03:27:26;6.87;;;5.93;;
3022;SDS011;1521;53.584;9.938;2023-05-10T03:29:52;7.27;;;6.07;;
3022;SDS011;1521;53.584;9.938;2023-05-10T03:32:19;11.57;;;5.93;;
3022;SDS011;1521;53.584;9.938;2023-05-10T03:34:45;6.93;;;5.90;;
3022;SDS011;1521;53.584;9.938;2023-05-10T03:37:11;6.40;;;5.80;;
3022;SDS011;1521;53.584;9.938;2023-05-10T03:39:36;8.40;;;6.00;;
3022;SDS011;1521;53.584;9.938;2023-05-10T03:42:02;11.13;;;5.93;;
3022;SDS011;1521;53.584;9.938;2023-05-10T03:44:27;9.53;;;6.17;;
3022;SDS011;1521;53.584;9.938;2023-05-10T03:46:53;7.30;;;5.87;;
3022;SDS011;1521;53.584;9.938;2023-05-10T03:49:18;9.50;;;6.43;;
3022;SDS011;1521;53.584;9.938;2023-05-10T03:51:44;8.30;;;6.30;;
3022;SDS011;1521;53.584;9.938;2023-05-10T03:54:10;8.27;;;6.30;;
3022;SDS011;1521;53.584;9.938;2023-05-10T03:56:35;7.63;;;6.00;;
3022;SDS011;1521;53.584;9.938;2023-05-10T03:59:01;6.40;;;5.73;;
3022;SDS011;1521;53.584;9.938;2023-05-10T04:01:26;7.20;;;5.63;;
3022;SDS011;1521;53.584;9.938;2023-05-10T04:03:52;8.00;;;6.10;;
3022;SDS011;1521;53.584;9.938;2023-05-10T04:06:17;10.77;;;5.93;;
3022;SDS011;1521;53.584;9.938;2023-05-10T04:08:43;9.67;;;5.67;;
3022;SDS011;1521;53.584;9.938;2023-05-10T04:11:09;7.40;;;5.70;;
3022;SDS011;1521;53.584;9.938;2023-05-10T04:13:36;11.23;;;6.00;;
3022;SDS011;1521;53.584;9.938;2023-05-10T04:16:03;7.30;;;6.50;;
3022;SDS011;1521;53.584;9.938;2023-05-10T04:18:29;7.77;;;5.80;;
3022;SDS011;1521;53.584;9.938;2023-05-10T04:20:55;7.30;;;5.70;;
3022;SDS011;1521;53.584;9.938;2023-05-10T04:23:21;8.60;;;5.63;;
3022;SDS011;1521;53.584;9.938;2023-05-10T04:25:47;7.80;;;5.90;;
3022;SDS011;1521;53.584;9.938;2023-05-10T04:28:12;8.70;;;6.10;;
3022;SDS011;1521;53.584;9.938;2023-05-10T04:30:38;7.77;;;6.10;;
3022;SDS011;1521;53.584;9.938;2023-05-10T04:33:05;9.73;;;6.43;;
3022;SDS011;1521;53.584;9.938;2023-05-10T04:35:31;13.57;;;5.97;;
3022;SDS011;1521;53.584;9.938;2023-05-10T04:37:56;6.87;;;5.83;;
3022;SDS011;1521;53.584;9.938;2023-05-10T04:40:22;12.83;;;6.00;;
3022;SDS011;1521;53.584;9.938;2023-05-10T04:42:47;10.80;;;6.47;;
3022;SDS011;1521;53.584;9.938;2023-05-10T04:45:13;10.87;;;5.80;;
3022;SDS011;1521;53.584;9.938;2023-05-10T04:47:41;10.60;;;6.33;;
3022;SDS011;1521;53.584;9.938;2023-05-10T04:50:07;16.83;;;5.93;;
3022;SDS011;1521;53.584;9.938;2023-05-10T04:52:33;10.63;;;6.43;;
3022;SDS011;1521;53.584;9.938;2023-05-10T04:54:58;7.30;;;6.10;;
3022;SDS011;1521;53.584;9.938;2023-05-10T04:57:24;11.27;;;5.93;;
3022;SDS011;1521;53.584;9.938;2023-05-10T04:59:50;9.00;;;6.07;;
3022;SDS011;1521;53.584;9.938;2023-05-10T05:02:16;8.73;;;6.57;;
3022;SDS011;1521;53.584;9.938;2023-05-10T05:04:41;10.70;;;6.80;;
3022;SDS011;1521;53.584;9.938;2023-05-10T05:07:07;9.33;;;6.03;;
3022;SDS011;1521;53.584;9.938;2023-05-10T05:09:32;8.80;;;6.20;;
3022;SDS011;1521;53.584;9.938;2023-05-10T05:11:58;7.20;;;5.73;;
3022;SDS011;1521;53.584;9.938;2023-05-10T05:14:24;9.53;;;6.07;;
3022;SDS011;1521;53.584;9.938;2023-05-10T05:16:50;10.23;;;6.23;;
3022;SDS011;1521;53.584;9.938;2023-05-10T05:19:17;8.20;;;5.97;;
3022;SDS011;1521;53.584;9.938;2023-05-10T05:21:42;9.17;;;6.70;;
3022;SDS011;1521;53.584;9.938;2023-05-10T05:24:08;9.60;;;5.50;;
3022;SDS011;1521;53.584;9.938;2023-05-10T05:26:35;6.40;;;5.60;;
3022;SDS011;1521;53.584;9.938;2023-05-10T05:29:00;6.70;;;6.10;;
3022;SDS011;1521;53.584;9.938;2023-05-10T05:31:26;9.03;;;5.90;;
3022;SDS011;1521;53.584;9.938;2023-05-10T05:33:51;7.00;;;5.90;;
3022;SDS011;1521;53.584;9.938;2023-05-10T05:36:17;7.93;;;6.00;;
3022;SDS011;1521;53.584;9.938;2023-05-10T05:38:43;7.60;;;6.00;;
3022;SDS011;1521;53.584;9.938;2023-05-10T05:41:08;6.97;;;6.10;;
3022;SDS011;1521;53.584;9.938;2023-05-10T05:43:34;9.37;;;6.17;;
3022;SDS011;1521;53.584;9.938;2023-05-10T05:45:59;12.57;;;5.70;;
3022;SDS011;1521;53.584;9.938;2023-05-10T05:48:26;7.80;;;6.90;;
3022;SDS011;1521;53.584;9.938;2023-05-10T05:50:54;9.23;;;6.70;;
3022;SDS011;1521;53.584;9.938;2023-05-10T05:53:21;10.83;;;6.20;;
3022;SDS011;1521;53.584;9.938;2023-05-10T05:55:56;8.27;;;5.83;;
3022;SDS011;1521;53.584;9.938;2023-05-10T05:58:23;10.47;;;6.37;;
3022;SDS011;1521;53.584;9.938;2023-05-10T06:00:50;7.23;;;6.07;;
3022;SDS011;1521;53.584;9.938;2023-05-10T06:03:16;7.73;;;6.50;;
3022;SDS011;1521;53.584;9.938;2023-05-10T06:05:42;7.63;;;6.57;;
3022;SDS011;1521;53.584;9.938;2023-05-10T06:08:08;10.33;;;6.03;;
3022;SDS011;1521;53.584;9.938;2023-05-10T06:10:34;9.30;;;6.23;;
3022;SDS011;1521;53.584;9.938;2023-05-10T06:13:00;7.60;;;5.63;;
3022;SDS011;1521;53.584;9.938;2023-05-10T06:15:26;8.33;;;6.30;;
3022;SDS011;1521;53.584;9.938;2023-05-10T06:17:52;10.57;;;6.60;;
3022;SDS011;1521;53.584;9.938;2023-05-10T06:20:17;6.63;;;5.57;;
3022;SDS011;1521;53.584;9.938;2023-05-10T06:22:43;7.60;;;6.13;;
3022;SDS011;1521;53.584;9.938;2023-05-10T06:25:09;13.80;;;6.40;;
3022;SDS011;1521;53.584;9.938;2023-05-10T06:27:35;11.30;;;6.73;;
3022;SDS011;1521;53.584;9.938;2023-05-10T06:30:01;13.75;;;6.13;;
3022;SDS011;1521;53.584;9.938;2023-05-10T06:32:27;8.90;;;6.13;;
3022;SDS011;1521;53.584;9.938;2023-05-10T06:34:53;8.52;;;5.60;;
3022;SDS011;1521;53.584;9.938;2023-05-10T06:37:18;9.37;;;6.13;;
3022;SDS011;1521;53.584;9.938;2023-05-10T06:39:44;10.23;;;6.83;;
3022;SDS011;1521;53.584;9.938;2023-05-10T06:42:10;11.30;;;6.37;;
3022;SDS011;1521;53.584;9.938;2023-05-10T06:44:35;66.60;;;36.67;;
3022;SDS011;1521;53.584;9.938;2023-05-10T06:47:01;12.87;;;7.37;;
3022;SDS011;1521;53.584;9.938;2023-05-10T06:49:26;8.10;;;7.03;;
3022;SDS011;1521;53.584;9.938;2023-05-10T06:51:52;10.43;;;6.60;;
3022;SDS011;1521;53.584;9.938;2023-05-10T06:54:18;11.73;;;6.20;;
3022;SDS011;1521;53.584;9.938;2023-05-10T06:56:44;8.43;;;6.23;;
3022;SDS011;1521;53.584;9.938;2023-05-10T06:59:09;10.13;;;6.00;;
3022;SDS011;1521;53.584;9.938;2023-05-10T07:01:35;13.30;;;6.40;;
3022;SDS011;1521;53.584;9.938;2023-05-10T07:04:01;10.30;;;7.13;;
3022;SDS011;1521;53.584;9.938;2023-05-10T07:06:26;13.13;;;6.97;;
3022;SDS011;1521;53.584;9.938;2023-05-10T07:08:52;26.63;;;7.23;;
3022;SDS011;1521;53.584;9.938;2023-05-10T07:11:18;13.53;;;6.90;;
3022;SDS011;1521;53.584;9.938;2023-05-10T07:13:43;9.23;;;6.43;;
3022;SDS011;1521;53.584;9.938;2023-05-10T07:16:11;8.97;;;5.90;;
3022;SDS011;1521;53.584;9.938;2023-05-10T07:18:37;8.63;;;6.33;;
3022;SDS011;1521;53.584;9.938;2023-05-10T07:21:02;8.00;;;5.80;;
3022;SDS011;1521;53.584;9.938;2023-05-10T07:23:28;8.20;;;6.60;;
3022;SDS011;1521;53.584;9.938;2023-05-10T07:25:54;6.87;;;5.90;;
3022;SDS011;1521;53.584;9.938;2023-05-10T07:28:22;9.60;;;6.43;;
3022;SDS011;1521;53.584;9.938;2023-05-10T07:30:49;6.67;;;5.97;;
3022;SDS011;1521;53.584;9.938;2023-05-10T07:33:15;11.50;;;7.20;;
3022;SDS011;1521;53.584;9.938;2023-05-10T07:35:40;7.63;;;5.63;;
3022;SDS011;1521;53.584;9.938;2023-05-10T07:38:06;8.33;;;5.63;;
3022;SDS011;1521;53.584;9.938;2023-05-10T07:40:32;13.33;;;6.20;;
3022;SDS011;1521;53.584;9.938;2023-05-10T07:42:58;14.10;;;6.20;;
3022;SDS011;1521;53.584;9.938;2023-05-10T07:45:25;9.87;;;6.40;;
3022;SDS011;1521;53.584;9.938;2023-05-10T07:47:51;7.90;;;5.60;;
3022;SDS011;1521;53.584;9.938;2023-05-10T07:50:17;8.43;;;6.20;;
3022;SDS011;1521;53.584;9.938;2023-05-10T07:52:42;8.30;;;5.90;;
3022;SDS011;1521;53.584;9.938;2023-05-10T07:55:08;7.33;;;6.10;;
3022;SDS011;1521;53.584;9.938;2023-05-10T07:57:34;10.63;;;5.87;;
3022;SDS011;1521;53.584;9.938;2023-05-10T08:00:00;13.33;;;8.50;;
3022;SDS011;1521;53.584;9.938;2023-05-10T08:02:26;8.20;;;6.00;;
3022;SDS011;1521;53.584;9.938;2023-05-10T08:04:51;6.88;;;5.80;;
3022;SDS011;1521;53.584;9.938;2023-05-10T08:07:17;7.90;;;6.53;;
3022;SDS011;1521;53.584;9.938;2023-05-10T08:09:43;10.10;;;6.03;;
3022;SDS011;1521;53.584;9.938;2023-05-10T08:12:08;7.20;;;6.00;;
3022;SDS011;1521;53.584;9.938;2023-05-10T08:14:34;6.73;;;6.07;;
3022;SDS011;1521;53.584;9.938;2023-05-10T08:17:01;9.40;;;6.23;;
3022;SDS011;1521;53.584;9.938;2023-05-10T08:19:28;12.20;;;5.60;;
3022;SDS011;1521;53.584;9.938;2023-05-10T08:21:53;9.43;;;6.30;;
3022;SDS011;1521;53.584;9.938;2023-05-10T08:24:20;7.97;;;6.10;;
3022;SDS011;1521;53.584;9.938;2023-05-10T08:26:46;8.23;;;6.60;;
3022;SDS011;1521;53.584;9.938;2023-05-10T08:29:12;7.67;;;5.90;;
3022;SDS011;1521;53.584;9.938;2023-05-10T08:31:38;9.23;;;5.97;;
3022;SDS011;1521;53.584;9.938;2023-05-10T08:34:04;7.30;;;6.10;;
3022;SDS011;1521;53.584;9.938;2023-05-10T08:36:29;8.73;;;5.80;;
3022;SDS011;1521;53.584;9.938;2023-05-10T08:38:56;9.37;;;6.07;;
3022;SDS011;1521;53.584;9.938;2023-05-10T08:41:23;11.70;;;6.20;;
3022;SDS011;1521;53.584;9.938;2023-05-10T08:43:50;8.17;;;6.20;;
3022;SDS011;1521;53.584;9.938;2023-05-10T08:46:17;6.38;;;5.63;;
3022;SDS011;1521;53.584;9.938;2023-05-10T08:48:44;7.67;;;5.70;;
3022;SDS011;1521;53.584;9.938;2023-05-10T08:51:13;7.47;;;6.33;;
3022;SDS011;1521;53.584;9.938;2023-05-10T08:53:41;9.73;;;5.87;;
3022;SDS011;1521;53.584;9.938;2023-05-10T08:56:07;7.47;;;5.77;;
3022;SDS011;1521;53.584;9.938;2023-05-10T08:58:33;6.27;;;5.43;;
3022;SDS011;1521;53.584;9.938;2023-05-10T09:00:58;8.87;;;6.30;;
3022;SDS011;1521;53.584;9.938;2023-05-10T09:03:25;8.87;;;6.40;;
3022;SDS011;1521;53.584;9.938;2023-05-10T09:05:51;12.20;;;6.80;;
3022;SDS011;1521;53.584;9.938;2023-05-10T09:08:17;10.63;;;6.45;;
3022;SDS011;1521;53.584;9.938;2023-05-10T09:10:43;8.50;;;7.00;;
3022;SDS011;1521;53.584;9.938;2023-05-10T09:13:12;9.13;;;7.00;;
3022;SDS011;1521;53.584;9.938;2023-05-10T09:15:40;13.00;;;6.97;;
3022;SDS011;1521;53.584;9.938;2023-05-10T09:18:05;15.30;;;7.00;;
3022;SDS011;1521;53.584;9.938;2023-05-10T09:20:31;10.20;;;6.90;;
3022;SDS011;1521;53.584;9.938;2023-05-10T09:22:56;16.13;;;7.07;;
3022;SDS011;1521;53.584;9.938;2023-05-10T09:25:22;9.43;;;6.80;;
3022;SDS011;1521;53.584;9.938;2023-05-10T09:27:48;19.80;;;8.23;;
3022;SDS011;1521;53.584;9.938;2023-05-10T09:30:23;8.13;;;6.45;;
3022;SDS011;1521;53.584;9.938;2023-05-10T09:32:53;11.77;;;8.00;;
3022;SDS011;1521;53.584;9.938;2023-05-10T09:35:22;9.23;;;6.83;;
3022;SDS011;1521;53.584;9.938;2023-05-10T09:37:49;10.82;;;6.80;;
3022;SDS011;1521;53.584;9.938;2023-05-10T09:40:22;10.30;;;8.23;;
3022;SDS011;1521;53.584;9.938;2023-05-10T09:45:24;14.00;;;8.03;;
3022;SDS011;1521;53.584;9.938;2023-05-10T09:47:50;9.53;;;7.63;;
3022;SDS011;1521;53.584;9.938;2023-05-10T09:50:16;13.83;;;8.60;;
3022;SDS011;1521;53.584;9.938;2023-05-10T09:52:55;12.77;;;8.80;;
3022;SDS011;1521;53.584;9.938;2023-05-10T09:55:25;9.27;;;8.27;;
3022;SDS011;1521;53.584;9.938;2023-05-10T09:58:03;15.13;;;8.90;;
3022;SDS011;1521;53.584;9.938;2023-05-10T10:00:34;10.87;;;9.00;;
3022;SDS011;1521;53.584;9.938;2023-05-10T10:03:01;19.73;;;10.00;;
3022;SDS011;1521;53.584;9.938;2023-05-10T10:05:30;13.83;;;8.97;;
3022;SDS011;1521;53.584;9.938;2023-05-10T10:07:57;14.30;;;9.20;;
3022;SDS011;1521;53.584;9.938;2023-05-10T10:10:24;14.00;;;8.90;;
3022;SDS011;1521;53.584;9.938;2023-05-10T10:12:51;12.80;;;9.17;;
3022;SDS011;1521;53.584;9.938;2023-05-10T10:15:17;18.00;;;9.73;;
3022;SDS011;1521;53.584;9.938;2023-05-10T10:17:43;13.63;;;9.73;;
3022;SDS011;1521;53.584;9.938;2023-05-10T10:20:09;16.60;;;9.60;;
3022;SDS011;1521;53.584;9.938;2023-05-10T10:22:36;14.30;;;10.20;;
3022;SDS011;1521;53.584;9.938;2023-05-10T10:25:02;12.37;;;10.53;;
3022;SDS011;1521;53.584;9.938;2023-05-10T10:32:59;13.13;;;10.23;;
3022;SDS011;1521;53.584;9.938;2023-05-10T10:35:51;10.80;;;9.30;;
3022;SDS011;1521;53.584;9.938;2023-05-10T10:38:18;17.20;;;11.00;;
3022;SDS011;1521;53.584;9.938;2023-05-10T10:40:43;13.17;;;10.47;;
3022;SDS011;1521;53.584;9.938;2023-05-10T10:43:25;15.17;;;11.30;;
3022;SDS011;1521;53.584;9.938;2023-05-10T10:46:09;16.05;;;11.57;;
3022;SDS011;1521;53.584;9.938;2023-05-10T10:48:39;15.60;;;11.07;;
3022;SDS011;1521;53.584;9.938;2023-05-10T10:51:06;16.53;;;11.37;;
3022;SDS011;1521;53.584;9.938;2023-05-10T10:53:32;12.73;;;10.60;;
3022;SDS011;1521;53.584;9.938;2023-05-10T10:56:02;18.73;;;11.20;;
3022;SDS011;1521;53.584;9.938;2023-05-10T10:58:32;16.10;;;12.57;;
3022;SDS011;1521;53.584;9.938;2023-05-10T11:03:37;17.00;;;12.00;;
3022;SDS011;1521;53.584;9.938;2023-05-10T11:06:03;14.97;;;11.63;;
3022;SDS011;1521;53.584;9.938;2023-05-10T11:08:30;13.33;;;11.63;;
3022;SDS011;1521;53.584;9.938;2023-05-10T11:13:28;17.53;;;11.60;;
3022;SDS011;1521;53.584;9.938;2023-05-10T11:16:09;15.97;;;12.77;;
3022;SDS011;1521;53.584;9.938;2023-05-10T11:18:51;12.60;;;11.13;;
3022;SDS011;1521;53.584;9.938;2023-05-10T11:21:18;14.60;;;11.87;;
3022;SDS011;1521;53.584;9.938;2023-05-10T11:23:48;16.10;;;12.27;;
3022;SDS011;1521;53.584;9.938;2023-05-10T11:26:15;14.40;;;11.87;;
3022;SDS011;1521;53.584;9.938;2023-05-10T11:28:44;16.47;;;11.93;;
3022;SDS011;1521;53.584;9.938;2023-05-10T11:31:17;19.57;;;12.60;;
3022;SDS011;1521;53.584;9.938;2023-05-10T11:36:17;13.80;;;11.63;;
3022;SDS011;1521;53.584;9.938;2023-05-10T11:38:44;15.57;;;11.67;;
3022;SDS011;1521;53.584;9.938;2023-05-10T11:41:11;17.50;;;13.50;;
3022;SDS011;1521;53.584;9.938;2023-05-10T11:43:40;14.97;;;12.00;;
3022;SDS011;1521;53.584;9.938;2023-05-10T11:46:10;15.70;;;13.30;;
3022;SDS011;1521;53.584;9.938;2023-05-10T11:48:40;17.70;;;14.20;;
3022;SDS011;1521;53.584;9.938;2023-05-10T11:51:07;14.83;;;12.53;;
3022;SDS011;1521;53.584;9.938;2023-05-10T11:53:33;18.40;;;13.70;;
3022;SDS011;1521;53.584;9.938;2023-05-10T11:56:03;15.23;;;13.57;;
3022;SDS011;1521;53.584;9.938;2023-05-10T11:58:32;18.27;;;12.40;;
3022;SDS011;1521;53.584;9.938;2023-05-10T12:00:58;13.83;;;11.67;;
3022;SDS011;1521;53.584;9.938;2023-05-10T12:03:25;13.33;;;10.90;;
3022;SDS011;1521;53.584;9.938;2023-05-10T12:05:51;12.73;;;11.33;;
3022;SDS011;1521;53.584;9.938;2023-05-10T12:08:20;15.57;;;11.20;;
3022;SDS011;1521;53.584;9.938;2023-05-10T12:10:49;15.70;;;11.30;;
3022;SDS011;1521;53.584;9.938;2023-05-10T12:13:15;15.77;;;12.40;;
3022;SDS011;1521;53.584;9.938;2023-05-10T12:15:42;17.83;;;12.83;;
3022;SDS011;1521;53.584;9.938;2023-05-10T12:18:11;14.83;;;11.30;;
3022;SDS011;1521;53.584;9.938;2023-05-10T12:20:38;12.87;;;10.40;;
3022;SDS011;1521;53.584;9.938;2023-05-10T12:23:04;9.37;;;8.43;;
3022;SDS011;1521;53.584;9.938;2023-05-10T12:25:34;9.80;;;8.20;;
3022;SDS011;1521;53.584;9.938;2023-05-10T12:28:05;13.40;;;10.97;;
3022;SDS011;1521;53.584;9.938;2023-05-10T12:30:32;18.00;;;11.80;;
3022;SDS011;1521;53.584;9.938;2023-05-10T12:33:02;13.90;;;12.00;;
3022;SDS011;1521;53.584;9.938;2023-05-10T12:35:33;15.20;;;10.50;;
3022;SDS011;1521;53.584;9.938;2023-05-10T12:38:34;13.37;;;10.97;;
3022;SDS011;1521;53.584;9.938;2023-05-10T12:41:03;13.00;;;10.53;;
3022;SDS011;1521;53.584;9.938;2023-05-10T12:43:31;13.23;;;11.03;;
3022;SDS011;1521;53.584;9.938;2023-05-10T12:45:57;20.90;;;13.10;;
3022;SDS011;1521;53.584;9.938;2023-05-10T12:48:23;15.30;;;12.90;;
3022;SDS011;1521;53.584;9.938;2023-05-10T12:50:49;13.20;;;11.80;;
3022;SDS011;1521;53.584;9.938;2023-05-10T12:53:15;14.70;;;12.63;;
3022;SDS011;1521;53.584;9.938;2023-05-10T12:55:44;14.67;;;12.90;;
3022;SDS011;1521;53.584;9.938;2023-05-10T12:58:10;14.13;;;12.00;;
3022;SDS011;1521;53.584;9.938;2023-05-10T13:00:35;13.90;;;12.40;;
3022;SDS011;1521;53.584;9.938;2023-05-10T13:03:03;12.90;;;11.00;;
3022;SDS011;1521;53.584;9.938;2023-05-10T13:05:30;13.17;;;11.40;;
3022;SDS011;1521;53.584;9.938;2023-05-10T13:07:57;11.80;;;10.10;;
3022;SDS011;1521;53.584;9.938;2023-05-10T13:10:22;13.03;;;11.63;;
3022;SDS011;1521;53.584;9.938;2023-05-10T13:12:48;13.70;;;12.30;;
3022;SDS011;1521;53.584;9.938;2023-05-10T13:15:14;14.87;;;11.53;;
3022;SDS011;1521;53.584;9.938;2023-05-10T13:17:40;13.77;;;11.97;;
3022;SDS011;1521;53.584;9.938;2023-05-10T13:20:07;13.30;;;10.97;;
3022;SDS011;1521;53.584;9.938;2023-05-10T13:22:34;13.30;;;10.20;;
3022;SDS011;1521;53.584;9.938;2023-05-10T13:25:00;11.60;;;10.40;;
3022;SDS011;1521;53.584;9.938;2023-05-10T13:27:26;11.20;;;9.67;;
3022;SDS011;1521;53.584;9.938;2023-05-10T13:29:52;12.77;;;9.93;;
3022;SDS011;1521;53.584;9.938;2023-05-10T13:32:18;11.53;;;10.17;;
3022;SDS011;1521;53.584;9.938;2023-05-10T13:34:44;12.10;;;9.40;;
3022;SDS011;1521;53.584;9.938;2023-05-10T13:37:09;11.83;;;10.60;;
3022;SDS011;1521;53.584;9.938;2023-05-10T13:39:35;13.70;;;12.03;;
3022;SDS011;1521;53.584;9.938;2023-05-10T13:42:02;11.57;;;10.30;;
3022;SDS011;1521;53.584;9.938;2023-05-10T13:44:28;11.77;;;10.60;;
3022;SDS011;1521;53.584;9.938;2023-05-10T13:46:54;12.30;;;10.30;;
3022;SDS011;1521;53.584;9.938;2023-05-10T13:49:20;11.53;;;10.07;;
3022;SDS011;1521;53.584;9.938;2023-05-10T13:51:46;10.77;;;9.67;;
3022;SDS011;1521;53.584;9.938;2023-05-10T13:54:12;11.80;;;10.60;;
3022;SDS011;1521;53.584;9.938;2023-05-10T13:56:38;11.67;;;9.90;;
3022;SDS011;1521;53.584;9.938;2023-05-10T13:59:04;10.77;;;9.73;;
3022;SDS011;1521;53.584;9.938;2023-05-10T14:01:30;14.30;;;10.93;;
3022;SDS011;1521;53.584;9.938;2023-05-10T14:03:56;11.40;;;10.27;;
3022;SDS011;1521;53.584;9.938;2023-05-10T14:06:21;11.60;;;10.40;;
3022;SDS011;1521;53.584;9.938;2023-05-10T14:08:47;12.07;;;10.87;;
3022;SDS011;1521;53.584;9.938;2023-05-10T14:11:12;11.50;;;10.50;;
3022;SDS011;1521;53.584;9.938;2023-05-10T14:13:38;11.57;;;10.20;;
3022;SDS011;1521;53.584;9.938;2023-05-10T14:16:04;10.67;;;9.57;;
3022;SDS011;1521;53.584;9.938;2023-05-10T14:18:29;12.70;;;10.40;;
3022;SDS011;1521;53.584;9.938;2023-05-10T14:20:55;14.10;;;9.50;;
3022;SDS011;1521;53.584;9.938;2023-05-10T14:23:21;13.43;;;9.77;;
3022;SDS011;1521;53.584;9.938;2023-05-10T14:25:54;11.10;;;9.63;;
3022;SDS011;1521;53.584;9.938;2023-05-10T14:28:19;10.30;;;9.17;;
3022;SDS011;1521;53.584;9.938;2023-05-10T14:30:46;10.73;;;9.00;;
3022;SDS011;1521;53.584;9.938;2023-05-10T14:33:11;11.43;;;10.23;;
3022;SDS011;1521;53.584;9.938;2023-05-10T14:35:37;9.87;;;8.90;;
3022;SDS011;1521;53.584;9.938;2023-05-10T14:38:03;10.50;;;9.50;;
3022;SDS011;1521;53.584;9.938;2023-05-10T14:40:28;9.60;;;8.70;;
3022;SDS011;1521;53.584;9.938;2023-05-10T14:42:54;8.40;;;7.57;;
3022;SDS011;1521;53.584;9.938;2023-05-10T14:45:21;11.00;;;9.37;;
3022;SDS011;1521;53.584;9.938;2023-05-10T14:47:47;9.47;;;8.57;;
3022;SDS011;1521;53.584;9.938;2023-05-10T14:50:13;12.80;;;9.40;;
3022;SDS011;1521;53.584;9.938;2023-05-10T14:52:39;9.60;;;8.63;;
3022;SDS011;1521;53.584;9.938;2023-05-10T14:55:04;9.00;;;8.10;;
3022;SDS011;1521;53.584;9.938;2023-05-10T14:57:30;9.93;;;9.03;;
3022;SDS011;1521;53.584;9.938;2023-05-10T14:59:57;10.37;;;9.37;;
3022;SDS011;1521;53.584;9.938;2023-05-10T15:02:22;10.63;;;9.53;;
3022;SDS011;1521;53.584;9.938;2023-05-10T15:04:48;12.43;;;9.00;;
3022;SDS011;1521;53.584;9.938;2023-05-10T15:07:13;13.50;;;9.20;;
3022;SDS011;1521;53.584;9.938;2023-05-10T15:09:41;10.53;;;8.50;;
3022;SDS011;1521;53.584;9.938;2023-05-10T15:12:06;11.07;;;8.63;;
3022;SDS011;1521;53.584;9.938;2023-05-10T15:14:32;10.67;;;8.93;;
3022;SDS011;1521;53.584;9.938;2023-05-10T15:16:58;12.13;;;9.07;;
3022;SDS011;1521;53.584;9.938;2023-05-10T15:19:24;14.13;;;10.90;;
3022;SDS011;1521;53.584;9.938;2023-05-10T15:21:49;10.63;;;8.90;;
3022;SDS011;1521;53.584;9.938;2023-05-10T15:24:15;10.17;;;9.20;;
3022;SDS011;1521;53.584;9.938;2023-05-10T15:26:41;9.80;;;8.87;;
3022;SDS011;1521;53.584;9.938;2023-05-10T15:29:06;12.20;;;8.30;;
3022;SDS011;1521;53.584;9.938;2023-05-10T15:31:32;10.97;;;9.90;;
3022;SDS011;1521;53.584;9.938;2023-05-10T15:34:01;10.80;;;9.30;;
3022;SDS011;1521;53.584;9.938;2023-05-10T15:36:27;10.33;;;8.90;;
3022;SDS011;1521;53.584;9.938;2023-05-10T15:38:55;10.80;;;9.30;;
3022;SDS011;1521;53.584;9.938;2023-05-10T15:41:21;10.13;;;9.13;;